createdAt,value
2023-03-06T00:02:53.317Z,11.55
2023-03-06T00:07:56.366Z,12.35
2023-03-06T00:13:03.589Z,12.82
2023-03-06T00:18:07.742Z,11.95
2023-03-06T00:23:11.575Z,11.65
2023-03-06T00:28:16.063Z,12.00
2023-03-06T00:33:19.183Z,12.65
2023-03-06T00:38:22.199Z,12.32
2023-03-06T00:43:25.641Z,11.45
2023-03-06T00:48:28.844Z,13.90
2023-03-06T00:53:31.928Z,12.45
2023-03-06T00:58:35.372Z,13.93
2023-03-06T01:03:38.481Z,15.23
2023-03-06T01:08:41.234Z,14.07
2023-03-06T01:13:44.899Z,14.93
2023-03-06T01:18:49.835Z,14.18
2023-03-06T01:23:52.795Z,13.50
2023-03-06T01:28:57.799Z,13.80
2023-03-06T01:34:00.840Z,13.65
2023-03-06T01:39:04.404Z,12.85
2023-03-06T01:44:07.383Z,13.85
2023-03-06T01:49:24.103Z,14.63
2023-03-06T01:54:50.984Z,14.00
2023-03-06T02:00:03.113Z,13.85
2023-03-06T02:05:16.081Z,14.32
2023-03-06T02:10:21.676Z,14.38
2023-03-06T02:15:27.773Z,14.60
2023-03-06T02:20:51.477Z,14.00
2023-03-06T02:25:54.948Z,14.32
2023-03-06T02:30:58.238Z,13.38
2023-03-06T02:36:15.446Z,12.85
2023-03-06T02:41:18.986Z,14.40
2023-03-06T02:46:23.519Z,13.88
2023-03-06T02:51:26.922Z,15.45
2023-03-06T02:56:29.880Z,16.67
2023-03-06T03:01:33.738Z,16.08
2023-03-06T03:06:36.817Z,14.77
2023-03-06T03:11:40.754Z,13.70
2023-03-06T03:16:45.624Z,14.45
2023-03-06T03:21:48.866Z,16.00
2023-03-06T03:26:52.304Z,15.02
2023-03-06T03:31:57.573Z,13.75
2023-03-06T03:42:05.947Z,11.95
2023-03-06T03:47:09.224Z,14.10
2023-03-06T03:52:12.643Z,13.38
2023-03-06T03:57:17.052Z,14.85
2023-03-06T04:02:25.777Z,14.63
2023-03-06T04:07:38.397Z,14.18
2023-03-06T04:12:41.599Z,15.65
2023-03-06T04:17:46.921Z,19.58
2023-03-06T04:22:54.035Z,20.58
2023-03-06T04:27:57.990Z,14.75
2023-03-06T04:33:01.442Z,14.20
2023-03-06T04:38:05.565Z,13.70
2023-03-06T04:43:13.811Z,12.75
2023-03-06T04:48:18.886Z,19.38
2023-03-06T04:53:27.293Z,21.88
2023-03-06T04:58:30.194Z,23.23
2023-03-06T05:03:33.255Z,23.20
2023-03-06T05:08:36.167Z,22.02
2023-03-06T05:13:39.176Z,20.88
2023-03-06T05:18:42.093Z,18.08
2023-03-06T05:23:44.939Z,16.85
2023-03-06T05:28:50.221Z,15.93
2023-03-06T05:33:55.107Z,16.42
2023-03-06T05:38:58.360Z,16.52
2023-03-06T05:44:01.036Z,14.60
2023-03-06T05:49:04.947Z,15.27
2023-03-06T05:54:11.814Z,17.40
2023-03-06T05:59:16.529Z,18.75
2023-03-06T06:05:57.754Z,17.88
2023-03-06T06:11:00.580Z,16.58
2023-03-06T06:23:37.712Z,17.70
2023-03-06T06:28:40.628Z,19.92
2023-03-06T06:33:43.636Z,16.40
2023-03-06T06:38:47.399Z,15.95
2023-03-06T06:43:50.123Z,14.82
2023-03-06T06:48:56.808Z,13.88
2023-03-06T07:02:13.665Z,14.80
2023-03-06T07:07:17.427Z,17.15
2023-03-06T07:12:39.487Z,15.23
2023-03-06T07:18:01.906Z,15.15
2023-03-06T07:23:43.770Z,17.98
2023-03-06T07:28:55.210Z,18.98
2023-03-06T07:33:59.467Z,17.08
2023-03-06T07:39:03.943Z,19.10
2023-03-06T07:44:07.222Z,20.85
2023-03-06T07:49:16.567Z,25.17
2023-03-06T07:54:21.224Z,24.25
2023-03-06T07:59:24.236Z,23.27
2023-03-06T08:04:29.018Z,23.10
2023-03-06T08:09:35.370Z,23.63
2023-03-06T08:14:38.365Z,13.02
2023-03-06T08:19:41.275Z,11.88
2023-03-06T08:24:44.182Z,10.88
2023-03-06T08:29:47.415Z,10.57
2023-03-06T08:34:50.612Z,11.88
2023-03-06T08:39:53.530Z,12.85
2023-03-06T08:44:56.419Z,11.15
2023-03-06T08:50:00.680Z,10.50
2023-03-06T08:55:06.576Z,12.93
2023-03-06T09:00:11.381Z,13.15
2023-03-06T09:05:14.702Z,13.65
2023-03-06T09:10:20.553Z,13.77
2023-03-06T09:15:29.817Z,14.75
2023-03-06T09:27:28.926Z,12.73
2023-03-06T09:32:32.422Z,13.00
2023-03-06T09:37:36.105Z,12.25
2023-03-06T09:42:39.419Z,12.38
2023-03-06T09:48:01.946Z,11.40
2023-03-06T09:53:42.110Z,12.75
2023-03-06T09:59:15.464Z,12.88
2023-03-06T10:04:41.610Z,11.80
2023-03-06T10:09:56.548Z,11.07
2023-03-06T10:15:07.733Z,10.50
2023-03-06T10:20:22.038Z,11.50
2023-03-06T10:25:35.899Z,10.50
2023-03-06T10:30:57.399Z,10.68
2023-03-06T10:36:00.559Z,9.98
2023-03-06T10:41:12.722Z,10.35
2023-03-06T10:46:32.054Z,9.23
2023-03-06T10:51:35.959Z,9.10
2023-03-06T10:56:43.475Z,9.05
2023-03-06T11:01:50.875Z,9.45
2023-03-06T11:07:07.743Z,8.18
2023-03-06T11:12:37.649Z,9.10
2023-03-06T11:17:58.074Z,8.13
2023-03-06T11:23:03.373Z,7.90
2023-03-06T11:28:24.497Z,8.40
2023-03-06T11:33:37.014Z,7.47
2023-03-06T11:38:48.422Z,7.85
2023-03-06T11:44:23.661Z,7.50
2023-03-06T11:49:35.313Z,7.57
2023-03-06T11:54:38.850Z,6.95
2023-03-06T12:00:29.934Z,6.78
2023-03-06T12:06:11.248Z,5.40
2023-03-06T12:11:23.398Z,5.30
2023-03-06T12:16:40.450Z,5.78
2023-03-06T12:22:09.504Z,5.70
2023-03-06T12:27:18.437Z,5.88
2023-03-06T12:32:59.546Z,5.00
2023-03-06T12:38:35.657Z,3.50
2023-03-06T12:43:53.915Z,4.43
2023-03-06T12:49:05.750Z,4.22
2023-03-06T12:54:13.370Z,3.40
2023-03-06T12:59:48.268Z,2.88
2023-03-06T13:05:00.595Z,5.00
2023-03-06T13:10:30.729Z,3.15
2023-03-06T13:15:39.008Z,2.67
2023-03-06T13:20:45.994Z,2.30
2023-03-06T13:25:50.776Z,2.08
2023-03-06T13:30:53.876Z,2.17
2023-03-06T13:36:19.747Z,2.67
2023-03-06T13:41:23.491Z,2.10
2023-03-06T13:46:31.324Z,2.00
2023-03-06T13:51:40.753Z,2.08
2023-03-06T13:56:52.599Z,2.40
2023-03-06T14:02:14.211Z,2.60
2023-03-06T14:07:23.614Z,2.72
2023-03-06T14:12:34.270Z,2.38
2023-03-06T14:17:39.445Z,1.83
2023-03-06T14:22:42.524Z,2.28
2023-03-06T14:27:50.365Z,1.70
2023-03-06T14:32:55.640Z,1.55
2023-03-06T14:38:03.551Z,2.22
2023-03-06T14:43:22.544Z,1.55
2023-03-06T14:48:38.871Z,1.52
2023-03-06T14:53:42.384Z,1.70
2023-03-06T14:59:03.421Z,1.88
2023-03-06T15:04:36.986Z,1.77
2023-03-06T15:09:43.696Z,1.65
2023-03-06T15:15:10.613Z,2.17
2023-03-06T15:20:38.235Z,1.40
2023-03-06T15:25:41.107Z,1.70
2023-03-06T15:30:44.183Z,1.30
2023-03-06T15:36:02.238Z,1.20
2023-03-06T15:41:07.395Z,1.70
2023-03-06T15:46:11.936Z,1.33
2023-03-06T15:51:14.951Z,1.35
2023-03-06T15:56:22.126Z,2.03
2023-03-06T16:01:25.024Z,1.30
2023-03-06T16:06:28.345Z,1.30
2023-03-06T16:11:43.302Z,1.27
2023-03-06T16:16:46.843Z,1.40
2023-03-06T16:21:50.035Z,1.20
2023-03-06T16:26:56.024Z,1.10
2023-03-06T16:32:02.143Z,1.30
2023-03-06T16:37:06.541Z,1.52
2023-03-06T16:42:09.462Z,1.35
2023-03-06T16:47:12.742Z,1.63
2023-03-06T16:52:16.593Z,1.35
2023-03-06T16:57:19.480Z,1.20
2023-03-06T17:02:22.425Z,1.17
2023-03-06T17:07:25.492Z,1.10
2023-03-06T17:12:28.586Z,1.30
2023-03-06T17:17:31.689Z,1.20
2023-03-06T17:22:36.106Z,1.30
2023-03-06T17:27:39.196Z,1.25
2023-03-06T17:32:42.227Z,1.63
2023-03-06T17:37:45.329Z,1.48
2023-03-06T17:42:48.204Z,1.40
2023-03-06T17:47:55.209Z,1.35
2023-03-06T17:52:58.182Z,1.60
2023-03-06T17:58:04.767Z,1.27
2023-03-06T18:03:14.586Z,1.30
2023-03-06T18:08:17.778Z,1.20
2023-03-06T18:13:20.877Z,1.30
2023-03-06T18:18:24.485Z,1.60
2023-03-06T18:23:27.559Z,1.48
2023-03-06T18:28:31.076Z,1.90
2023-03-06T18:33:34.021Z,1.55
2023-03-06T18:38:38.236Z,1.52
2023-03-06T18:43:41.920Z,1.55
2023-03-06T18:48:45.003Z,1.60
2023-03-06T18:53:48.332Z,1.40
2023-03-06T18:58:51.778Z,1.30
2023-03-06T19:03:54.693Z,1.50
2023-03-06T19:08:59.119Z,1.48
2023-03-06T19:14:02.190Z,1.50
2023-03-06T19:19:06.478Z,1.40
2023-03-06T19:24:14.225Z,1.52
2023-03-06T19:29:17.070Z,1.20
2023-03-06T19:34:20.294Z,1.20
2023-03-06T19:39:24.640Z,1.02
2023-03-06T19:44:27.921Z,1.10
2023-03-06T19:49:30.923Z,1.17
2023-03-06T19:54:33.668Z,0.98
2023-03-06T19:59:36.920Z,1.13
2023-03-06T20:04:39.958Z,1.38
2023-03-06T20:09:43.070Z,2.03
2023-03-06T20:14:46.597Z,3.45
2023-03-06T20:19:49.649Z,2.70
2023-03-06T20:24:53.005Z,2.97
2023-03-06T20:29:56.095Z,2.85
2023-03-06T20:34:59.107Z,1.75
2023-03-06T20:40:02.318Z,1.48
2023-03-06T20:45:06.685Z,2.17
2023-03-06T20:50:09.743Z,1.75
2023-03-06T20:55:12.833Z,1.58
2023-03-06T21:00:16.355Z,1.58
2023-03-06T21:05:19.267Z,1.52
2023-03-06T21:10:22.123Z,1.58
2023-03-06T21:15:30.156Z,1.73
2023-03-06T21:20:34.062Z,1.92
2023-03-06T21:25:37.010Z,1.67
2023-03-06T21:30:40.060Z,1.70
2023-03-06T21:35:44.853Z,1.73
2023-03-06T21:40:48.213Z,1.90
2023-03-06T21:45:53.026Z,1.95
2023-03-06T21:51:13.801Z,1.80
2023-03-06T21:56:19.444Z,1.80
2023-03-06T22:01:25.799Z,1.90
2023-03-06T22:06:31.719Z,1.63
2023-03-06T22:11:37.528Z,1.80
2023-03-06T22:16:40.390Z,1.67
2023-03-06T22:21:43.285Z,1.77
2023-03-06T22:26:46.354Z,1.60
2023-03-06T22:31:49.556Z,1.95
2023-03-06T22:36:53.199Z,1.80
2023-03-06T22:41:56.427Z,2.15
2023-03-06T22:46:59.721Z,2.03
2023-03-06T22:52:02.796Z,2.03
2023-03-06T22:57:06.301Z,2.42
2023-03-06T23:02:09.190Z,2.47
2023-03-06T23:07:12.200Z,2.40
2023-03-06T23:12:15.058Z,1.65
2023-03-06T23:17:37.177Z,2.28
2023-03-06T23:22:59.219Z,1.50
2023-03-06T23:28:17.868Z,1.52
2023-03-06T23:33:20.848Z,1.45
2023-03-06T23:38:23.977Z,1.67
2023-03-06T23:43:26.955Z,1.77
2023-03-06T23:48:30.391Z,1.40
2023-03-06T23:53:32.986Z,1.90
2023-03-06T23:58:36.368Z,1.75
